createdAt,value
2022-10-24T00:13:09.887Z,14.25
2022-10-24T00:33:09.901Z,14.31
2022-10-24T00:53:09.821Z,14.43
2022-10-24T01:13:09.836Z,14.43
2022-10-24T01:33:09.853Z,14.43
2022-10-24T01:53:09.810Z,14.31
2022-10-24T02:13:09.791Z,14.31
2022-10-24T02:33:09.809Z,14.31
2022-10-24T02:53:09.722Z,14.43
2022-10-24T03:13:09.770Z,14.37
2022-10-24T03:33:09.763Z,14.37
2022-10-24T03:53:09.675Z,14.25
2022-10-24T04:13:09.727Z,14.37
2022-10-24T04:33:09.659Z,14.25
2022-10-24T04:53:09.634Z,14.25
2022-10-24T05:13:09.649Z,14.25
2022-10-24T05:33:09.585Z,14.25
2022-10-24T05:53:09.582Z,14.25
2022-10-24T06:13:09.624Z,14.37
2022-10-24T06:33:09.574Z,14.37
2022-10-24T06:53:09.538Z,14.25
2022-10-24T07:13:09.582Z,14.31
2022-10-24T07:33:09.471Z,14.18
2022-10-24T07:53:09.489Z,14.18
2022-10-24T08:13:09.411Z,14.25
2022-10-24T08:33:09.545Z,14.25
2022-10-24T08:53:09.457Z,14.18
2022-10-24T09:13:09.478Z,14.18
2022-10-24T09:33:09.376Z,14.31
2022-10-24T09:53:09.433Z,14.25
2022-10-24T10:13:09.315Z,14.25
2022-10-24T10:33:09.336Z,14.25
2022-10-24T10:53:09.249Z,14.37
2022-10-24T11:13:09.269Z,14.31
2022-10-24T11:33:09.285Z,14.31
2022-10-24T11:53:09.200Z,14.43
2022-10-24T12:13:09.219Z,14.31
2022-10-24T12:33:09.238Z,14.43
2022-10-24T12:53:09.151Z,14.31
2022-10-24T13:13:09.177Z,14.31
2022-10-24T13:33:09.091Z,14.43
2022-10-24T13:53:09.122Z,14.31
2022-10-24T14:13:09.129Z,14.43
2022-10-24T14:33:09.113Z,14.31
2022-10-24T14:53:09.050Z,14.31
2022-10-24T15:13:09.053Z,14.25
2022-10-24T15:33:09.069Z,14.25
2022-10-24T15:53:08.998Z,14.06
2022-10-24T16:13:09.009Z,14.31
2022-10-24T16:33:08.935Z,14.31
2022-10-24T16:53:08.979Z,14.31
2022-10-24T17:13:08.963Z,14.25
2022-10-24T17:33:08.914Z,14.31
2022-10-24T17:53:08.901Z,14.31
2022-10-24T18:13:08.926Z,14.25
2022-10-24T18:33:08.870Z,14.25
2022-10-24T18:53:08.857Z,14.31
2022-10-24T19:13:08.926Z,14.25
2022-10-24T19:33:08.828Z,14.18
2022-10-24T19:53:08.813Z,14.18
2022-10-24T20:13:08.829Z,14.18
2022-10-24T20:33:08.749Z,14.00
2022-10-24T20:53:08.787Z,14.18
2022-10-24T21:13:08.787Z,14.31
2022-10-24T21:33:08.703Z,14.12
2022-10-24T21:53:08.731Z,14.12
2022-10-24T22:13:08.823Z,14.12
2022-10-24T22:33:08.656Z,14.12
2022-10-24T22:53:08.676Z,14.12
2022-10-24T23:13:08.754Z,14.06
2022-10-24T23:33:08.611Z,13.81
2022-10-24T23:53:08.626Z,14.06
